createdAt,value
2023-04-24T03:47:57.535Z,792.80
2023-04-24T03:50:24.428Z,775.00
2023-04-24T03:52:51.084Z,781.63
2023-04-24T03:55:17.712Z,762.92
2023-04-24T03:57:44.315Z,774.83
2023-04-24T04:00:12.004Z,766.72
2023-04-24T04:02:38.687Z,761.45
2023-04-24T04:05:06.070Z,758.63
2023-04-24T04:07:32.835Z,764.33
2023-04-24T04:09:59.524Z,749.30
2023-04-24T04:12:26.283Z,754.33
2023-04-24T04:14:52.939Z,751.40
2023-04-24T04:17:19.630Z,761.90
2023-04-24T04:19:46.230Z,756.30
2023-04-24T04:22:12.833Z,757.92
2023-04-24T04:24:41.437Z,753.90
2023-04-24T04:27:08.995Z,761.17
2023-04-24T04:29:36.704Z,751.47
2023-04-24T04:32:03.824Z,752.28
2023-04-24T04:34:30.733Z,749.78
2023-04-24T04:37:00.453Z,754.78
2023-04-24T04:39:29.147Z,753.45
2023-04-24T04:41:55.844Z,755.42
2023-04-24T04:44:22.496Z,753.10
2023-04-24T04:46:49.313Z,751.08
2023-04-24T04:49:17.717Z,743.83
2023-04-24T04:51:44.431Z,752.25
2023-04-24T04:54:11.111Z,745.50
2023-04-24T04:56:37.736Z,753.20
2023-04-24T04:59:04.396Z,745.93
2023-04-24T05:01:31.353Z,746.20
2023-04-24T05:03:58.347Z,750.38
2023-04-24T05:06:25.317Z,751.78
2023-04-24T05:08:52.207Z,759.38
2023-04-24T05:11:18.855Z,755.45
2023-04-24T05:13:45.548Z,749.77
2023-04-24T05:16:12.202Z,752.10
2023-04-24T05:18:39.036Z,754.47
2023-04-24T05:21:05.770Z,756.95
2023-04-24T05:23:32.580Z,755.57
2023-04-24T05:25:59.220Z,756.75
2023-04-24T05:28:29.241Z,751.10
2023-04-24T05:30:56.888Z,751.42
2023-04-24T05:33:24.030Z,754.65
2023-04-24T05:35:50.696Z,748.92
2023-04-24T05:38:20.677Z,757.37
2023-04-24T05:40:47.358Z,750.45
2023-04-24T05:43:14.598Z,758.30
2023-04-24T05:45:41.280Z,751.22
2023-04-24T05:48:07.913Z,762.35
2023-04-24T05:50:36.794Z,757.80
2023-04-24T05:53:04.530Z,773.50
2023-04-24T05:55:32.315Z,769.15
2023-04-24T05:57:59.100Z,760.28
2023-04-24T06:00:26.318Z,753.92
2023-04-24T06:02:53.968Z,765.03
2023-04-24T06:05:21.218Z,763.53
2023-04-24T06:07:49.007Z,770.60
2023-04-24T06:10:15.869Z,758.55
2023-04-24T06:12:42.703Z,772.50
2023-04-24T06:15:09.756Z,768.42
2023-04-24T06:17:36.483Z,766.47
2023-04-24T06:20:06.119Z,777.10
2023-04-24T06:22:32.907Z,775.42
2023-04-24T06:25:01.604Z,770.45
2023-04-24T06:27:28.297Z,772.90
2023-04-24T06:29:56.149Z,787.15
2023-04-24T06:32:24.455Z,793.97
2023-04-24T06:34:53.240Z,797.05
2023-04-24T06:37:21.444Z,789.83
2023-04-24T06:39:48.368Z,791.28
2023-04-24T06:42:15.177Z,790.45
2023-04-24T06:44:42.118Z,789.50
2023-04-24T06:47:14.485Z,789.83
2023-04-24T06:49:41.281Z,801.00
2023-04-24T06:52:08.416Z,803.80
2023-04-24T06:54:35.084Z,800.85
2023-04-24T06:57:03.357Z,812.20
2023-04-24T06:59:30.658Z,809.53
2023-04-24T07:01:58.064Z,819.47
2023-04-24T07:04:26.327Z,817.33
2023-04-24T07:06:56.756Z,822.60
2023-04-24T07:09:24.704Z,820.20
2023-04-24T07:11:52.310Z,815.00
2023-04-24T07:14:19.064Z,827.17
2023-04-24T07:16:46.228Z,825.30
2023-04-24T07:19:14.099Z,818.85
2023-04-24T07:21:41.032Z,825.85
2023-04-24T07:24:11.608Z,827.72
2023-04-24T07:26:38.474Z,830.10
2023-04-24T07:29:05.147Z,829.60
2023-04-24T07:31:31.807Z,840.00
2023-04-24T07:33:59.194Z,838.00
2023-04-24T07:36:26.935Z,838.78
2023-04-24T07:38:53.983Z,840.97
2023-04-24T07:41:23.611Z,817.50
2023-04-24T07:43:51.847Z,827.90
2023-04-24T07:46:18.563Z,819.50
2023-04-24T07:48:45.377Z,815.08
2023-04-24T07:51:14.239Z,812.77
2023-04-24T07:53:41.119Z,803.47
2023-04-24T07:56:07.985Z,800.35
2023-04-24T07:58:35.195Z,798.17
2023-04-24T08:01:02.046Z,800.42
2023-04-24T08:03:28.927Z,809.13
2023-04-24T08:05:56.243Z,807.53
2023-04-24T08:08:23.713Z,808.23
2023-04-24T08:10:51.047Z,817.50
2023-04-24T08:13:17.838Z,826.13
2023-04-24T08:15:44.520Z,821.10
2023-04-24T08:18:12.954Z,837.25
2023-04-24T08:20:40.045Z,836.92
2023-04-24T08:23:06.723Z,838.33
2023-04-24T08:25:33.571Z,842.40
2023-04-24T08:28:00.399Z,847.40
2023-04-24T08:30:27.056Z,844.55
2023-04-24T08:32:53.746Z,845.25
2023-04-24T08:35:20.504Z,844.45
2023-04-24T08:37:47.200Z,836.07
2023-04-24T08:40:15.815Z,841.57
2023-04-24T08:42:45.986Z,849.27
2023-04-24T08:45:13.894Z,843.90
2023-04-24T08:47:41.543Z,856.45
2023-04-24T08:50:09.600Z,845.90
2023-04-24T08:52:36.928Z,851.60
2023-04-24T08:55:03.784Z,884.95
2023-04-24T08:57:32.011Z,908.75
2023-04-24T08:59:59.324Z,910.40
2023-04-24T09:02:27.053Z,923.40
2023-04-24T09:04:54.684Z,940.05
2023-04-24T09:07:25.700Z,939.03
2023-04-24T09:09:53.374Z,941.42
2023-04-24T09:12:20.385Z,924.47
2023-04-24T09:14:47.191Z,939.60
2023-04-24T09:17:14.075Z,939.20
2023-04-24T09:19:41.787Z,930.40
2023-04-24T09:22:10.039Z,914.55
2023-04-24T09:24:36.901Z,903.03
2023-04-24T09:27:04.108Z,892.60
2023-04-24T09:29:31.060Z,895.85
2023-04-24T09:31:57.740Z,891.35
2023-04-24T09:34:28.532Z,900.20
2023-04-24T09:36:56.000Z,909.88
2023-04-24T09:39:22.698Z,927.70
2023-04-24T09:41:54.857Z,965.50
2023-04-24T09:44:23.586Z,981.88
2023-04-24T09:46:52.694Z,984.80
2023-04-24T09:49:31.290Z,990.00
2023-04-24T09:52:06.092Z,976.33
2023-04-24T09:54:32.956Z,956.23
2023-04-24T09:57:00.985Z,932.88
2023-04-24T09:59:27.812Z,923.72
2023-04-24T10:01:54.613Z,927.75
2023-04-24T10:04:25.192Z,944.17
2023-04-24T10:06:54.440Z,970.47
2023-04-24T10:09:23.405Z,976.00
2023-04-24T10:11:52.044Z,977.40
2023-04-24T10:14:21.596Z,979.60
2023-04-24T10:16:49.251Z,975.78
2023-04-24T10:19:17.559Z,979.75
2023-04-24T10:21:47.887Z,981.70
2023-04-24T10:24:16.669Z,988.40
2023-04-24T10:26:44.455Z,969.55
2023-04-24T10:29:16.497Z,952.42
2023-04-24T10:31:46.427Z,958.47
2023-04-24T10:34:15.287Z,961.65
2023-04-24T10:36:46.929Z,969.03
2023-04-24T10:39:15.940Z,978.10
2023-04-24T10:41:42.846Z,988.28
2023-04-24T10:44:15.097Z,990.55
2023-04-24T10:46:46.943Z,998.65
2023-04-24T10:49:13.746Z,999.90
2023-04-24T10:51:48.962Z,996.78
2023-04-24T10:54:30.130Z,999.90
2023-04-24T10:57:21.738Z,990.67
2023-04-24T10:59:51.388Z,984.53
2023-04-24T11:02:19.282Z,983.22
2023-04-24T11:04:46.625Z,974.83
2023-04-24T11:07:13.593Z,975.28
2023-04-24T11:09:43.885Z,973.13
2023-04-24T11:12:12.511Z,971.30
2023-04-24T11:14:58.162Z,968.83
2023-04-24T11:17:29.930Z,981.38
2023-04-24T11:20:12.219Z,992.25
2023-04-24T11:22:45.931Z,999.90
2023-04-24T11:25:15.337Z,999.90
2023-04-24T11:27:49.665Z,999.90
2023-04-24T11:30:19.804Z,992.47
2023-04-24T11:32:50.877Z,986.45
2023-04-24T11:35:19.993Z,978.15
2023-04-24T11:40:29.332Z,968.03
2023-04-24T11:42:56.543Z,967.30
2023-04-24T11:45:29.197Z,966.70
2023-04-24T11:47:56.053Z,962.17
2023-04-24T11:50:26.761Z,977.22
2023-04-24T11:52:53.573Z,994.22
2023-04-24T11:55:20.260Z,999.90
2023-04-24T11:57:48.904Z,999.90
2023-04-24T12:00:23.488Z,999.90
2023-04-24T12:02:51.442Z,999.90
2023-04-24T12:05:27.154Z,991.40
2023-04-24T12:07:55.379Z,983.85
2023-04-24T12:10:26.402Z,976.70
2023-04-24T12:12:56.882Z,971.88
2023-04-24T12:15:23.871Z,974.95
2023-04-24T12:17:53.186Z,968.03
2023-04-24T12:20:28.601Z,947.78
2023-04-24T12:22:57.722Z,943.45
2023-04-24T12:25:27.071Z,940.72
2023-04-24T12:27:56.226Z,931.08
2023-04-24T12:30:28.271Z,923.65
2023-04-24T12:32:56.084Z,916.60
2023-04-24T12:35:24.879Z,923.42
2023-04-24T12:37:51.606Z,924.25
2023-04-24T12:40:20.929Z,924.80
2023-04-24T12:42:51.978Z,921.80
2023-04-24T12:45:20.234Z,926.25
2023-04-24T12:47:47.485Z,924.88
2023-04-24T12:50:15.997Z,923.70
2023-04-24T12:52:43.991Z,925.17
2023-04-24T12:55:13.254Z,925.10
2023-04-24T12:57:41.116Z,927.93
2023-04-24T13:00:09.296Z,926.30
2023-04-24T13:02:36.438Z,922.80
2023-04-24T13:05:03.582Z,910.30
2023-04-24T13:07:30.262Z,905.55
2023-04-24T13:09:57.925Z,912.30
2023-04-24T13:12:27.617Z,910.33
2023-04-24T13:14:54.946Z,909.13
2023-04-24T13:17:23.369Z,916.80
2023-04-24T13:19:52.406Z,920.20
2023-04-24T13:22:22.506Z,922.15
2023-04-24T13:24:51.805Z,922.97
2023-04-24T13:27:19.051Z,917.00
2023-04-24T13:29:46.008Z,922.75
2023-04-24T13:32:12.762Z,921.67
2023-04-24T13:34:39.656Z,919.78
2023-04-24T13:37:06.694Z,916.63
2023-04-24T13:39:33.382Z,921.50
2023-04-24T13:42:01.955Z,922.47
2023-04-24T13:44:29.900Z,931.10
2023-04-24T13:46:57.832Z,917.15
2023-04-24T13:49:28.421Z,929.80
2023-04-24T13:51:56.732Z,916.60
2023-04-24T13:54:26.469Z,919.47
2023-04-24T13:56:53.607Z,915.67
2023-04-24T13:59:22.289Z,909.25
2023-04-24T14:01:49.370Z,900.55
2023-04-24T14:04:16.659Z,898.72
2023-04-24T14:06:44.427Z,889.47
2023-04-24T14:09:11.143Z,887.23
2023-04-24T14:11:37.871Z,882.17
2023-04-24T14:14:04.909Z,890.97
2023-04-24T14:16:31.987Z,901.58
2023-04-24T14:18:58.763Z,893.53
2023-04-24T14:21:25.582Z,906.07
2023-04-24T14:23:52.210Z,907.78
2023-04-24T14:26:18.903Z,908.50
2023-04-24T14:28:45.558Z,920.72
2023-04-24T14:31:12.868Z,915.80
2023-04-24T14:33:39.507Z,912.78
2023-04-24T14:36:06.724Z,910.63
2023-04-24T14:38:33.653Z,912.15
2023-04-24T14:41:07.044Z,915.63
2023-04-24T14:43:36.096Z,910.58
2023-04-24T14:46:03.550Z,914.40
2023-04-24T14:48:30.327Z,913.97
2023-04-24T14:50:56.937Z,922.07
2023-04-24T14:53:23.932Z,920.30
2023-04-24T14:55:50.764Z,921.75
2023-04-24T14:58:17.655Z,919.13
2023-04-24T15:00:44.354Z,910.97
2023-04-24T15:03:11.495Z,906.90
2023-04-24T15:05:38.403Z,917.20
2023-04-24T15:08:05.410Z,916.88
2023-04-24T15:10:32.106Z,920.30
2023-04-24T15:12:58.761Z,922.67
2023-04-24T15:15:25.578Z,920.78
2023-04-24T15:17:52.196Z,919.88
2023-04-24T15:20:19.081Z,921.33
2023-04-24T15:22:45.833Z,920.42
2023-04-24T15:25:12.566Z,914.03
2023-04-24T15:27:46.636Z,911.45
2023-04-24T15:30:14.659Z,910.00
2023-04-24T15:32:41.816Z,911.80
2023-04-24T15:35:10.196Z,913.15
2023-04-24T15:37:38.239Z,917.08
2023-04-24T15:40:07.834Z,910.05
2023-04-24T15:42:34.793Z,917.15
2023-04-24T15:45:01.438Z,914.45
2023-04-24T15:47:28.132Z,910.50
2023-04-24T15:49:54.825Z,909.95
2023-04-24T15:52:21.933Z,909.95
2023-04-24T15:54:48.607Z,912.30
2023-04-24T15:57:15.542Z,907.63
2023-04-24T15:59:42.616Z,902.27
2023-04-24T16:02:19.285Z,906.75
2023-04-24T16:04:50.345Z,912.17
2023-04-24T16:07:20.283Z,907.13
2023-04-24T16:09:47.224Z,909.20
2023-04-24T16:12:14.648Z,910.95
2023-04-24T16:14:41.708Z,913.27
2023-04-24T16:17:08.491Z,921.22
2023-04-24T16:19:35.257Z,920.33
2023-04-24T16:22:03.211Z,910.63
2023-04-24T16:24:30.069Z,917.83
2023-04-24T16:26:56.767Z,919.25
2023-04-24T16:29:23.530Z,920.17
2023-04-24T16:31:50.620Z,930.88
2023-04-24T16:34:17.456Z,929.65
2023-04-24T16:36:44.244Z,924.97
2023-04-24T16:39:10.820Z,929.92
2023-04-24T16:41:37.472Z,928.80
2023-04-24T16:44:04.210Z,933.33
2023-04-24T16:46:30.895Z,917.28
2023-04-24T16:48:58.354Z,922.25
2023-04-24T16:51:25.431Z,912.42
2023-04-24T16:53:52.102Z,916.33
2023-04-24T16:56:18.734Z,911.38
2023-04-24T16:58:45.754Z,905.10
2023-04-24T17:01:12.617Z,909.55
2023-04-24T17:03:39.514Z,912.10
2023-04-24T17:06:06.799Z,910.50
2023-04-24T17:08:33.412Z,905.95
2023-04-24T17:11:00.065Z,911.83
2023-04-24T17:13:26.709Z,914.45
2023-04-24T17:15:53.434Z,909.28
2023-04-24T17:18:20.120Z,910.72
2023-04-24T17:20:46.746Z,908.00
2023-04-24T17:23:13.643Z,904.35
2023-04-24T17:25:40.483Z,891.45
2023-04-24T17:28:22.979Z,888.40
2023-04-24T17:30:49.673Z,883.13
2023-04-24T17:33:16.328Z,881.28
2023-04-24T17:35:42.999Z,884.53
2023-04-24T17:38:09.623Z,888.40
2023-04-24T17:40:38.018Z,888.55
2023-04-24T17:43:04.805Z,888.17
2023-04-24T17:45:32.383Z,893.65
2023-04-24T17:47:59.177Z,892.92
2023-04-24T17:50:25.995Z,882.45
2023-04-24T17:52:52.697Z,885.20
2023-04-24T17:55:19.425Z,887.15
2023-04-24T17:57:46.054Z,877.20
2023-04-24T18:00:13.301Z,873.95
2023-04-24T18:02:40.171Z,877.80
2023-04-24T18:05:07.149Z,870.80
2023-04-24T18:07:34.052Z,865.17
2023-04-24T18:10:00.737Z,855.95
2023-04-24T18:12:27.539Z,844.22
2023-04-24T18:15:06.262Z,845.25
2023-04-24T18:17:40.293Z,843.42
2023-04-24T18:20:07.462Z,849.42
2023-04-24T18:22:34.290Z,839.23
2023-04-24T18:25:01.162Z,833.15
2023-04-24T18:27:31.843Z,838.47
2023-04-24T18:29:59.236Z,833.72
2023-04-24T18:32:26.967Z,831.22
2023-04-24T18:34:53.885Z,827.85
2023-04-24T18:37:20.520Z,823.75
2023-04-24T18:39:47.341Z,833.15
2023-04-24T18:42:14.239Z,823.47
2023-04-24T18:44:42.673Z,827.90
2023-04-24T18:47:09.852Z,820.03
2023-04-24T18:49:36.593Z,825.35
2023-04-24T18:52:03.728Z,819.10
2023-04-24T18:54:31.540Z,818.13
2023-04-24T18:56:58.199Z,820.20
2023-04-24T18:59:24.861Z,826.45
2023-04-24T19:01:51.882Z,826.45
2023-04-24T19:04:20.652Z,823.45
2023-04-24T19:06:47.589Z,821.80
2023-04-24T19:09:14.263Z,820.73
2023-04-24T19:11:41.706Z,817.50
2023-04-24T19:14:08.451Z,822.97
2023-04-24T19:16:35.217Z,821.42
2023-04-24T19:19:03.671Z,825.63
2023-04-24T19:21:33.244Z,821.00
2023-04-24T19:24:00.234Z,827.55
2023-04-24T19:26:28.208Z,823.65
2023-04-24T19:28:57.632Z,837.97
2023-04-24T19:31:24.920Z,821.55
2023-04-24T19:33:51.590Z,827.92
2023-04-24T19:36:18.266Z,824.55
2023-04-24T19:38:45.512Z,824.60
2023-04-24T19:41:12.719Z,826.15
2023-04-24T19:43:39.996Z,825.05
2023-04-24T19:46:06.826Z,818.47
2023-04-24T19:48:33.595Z,817.80
2023-04-24T19:51:01.355Z,813.58
2023-04-24T19:53:28.672Z,820.45
2023-04-24T19:55:55.768Z,817.03
2023-04-24T19:58:22.403Z,810.40
2023-04-24T20:00:49.136Z,807.47
2023-04-24T20:03:25.395Z,810.38
2023-04-24T20:05:58.391Z,798.72
2023-04-24T20:08:24.997Z,802.70
2023-04-24T20:10:53.675Z,798.03
2023-04-24T20:13:20.464Z,793.25
2023-04-24T20:15:47.087Z,797.55
2023-04-24T20:18:13.877Z,796.35
2023-04-24T20:20:41.591Z,792.13
2023-04-24T20:23:08.432Z,797.05
2023-04-24T20:25:36.120Z,794.03
2023-04-24T20:28:02.883Z,799.55
2023-04-24T20:30:31.330Z,805.43
2023-04-24T20:32:58.511Z,805.97
2023-04-24T20:35:25.207Z,794.58
2023-04-24T20:37:53.531Z,793.38
2023-04-24T20:40:20.207Z,788.97
2023-04-24T20:42:46.901Z,793.10
2023-04-24T20:45:13.504Z,777.13
2023-04-24T20:47:40.129Z,787.28
2023-04-24T20:50:07.527Z,786.70
2023-04-24T20:52:34.553Z,786.70
2023-04-24T20:55:01.251Z,793.58
2023-04-24T20:57:27.973Z,785.78
2023-04-24T20:59:55.016Z,789.67
2023-04-24T21:02:21.780Z,784.45
2023-04-24T21:04:48.459Z,777.30
2023-04-24T21:07:15.646Z,775.78
2023-04-24T21:09:42.317Z,777.33
2023-04-24T21:12:08.982Z,762.00
2023-04-24T21:14:35.675Z,755.05
2023-04-24T21:17:03.174Z,761.22
2023-04-24T21:19:29.894Z,761.95
2023-04-24T21:21:56.550Z,754.47
2023-04-24T21:24:23.179Z,749.38
2023-04-24T21:26:50.099Z,745.08
2023-04-24T21:29:17.084Z,743.22
2023-04-24T21:31:44.247Z,747.13
2023-04-24T21:34:10.985Z,751.10
2023-04-24T21:36:37.747Z,752.00
2023-04-24T21:39:04.379Z,748.40
2023-04-24T21:41:31.454Z,747.10
2023-04-24T21:43:59.134Z,750.25
2023-04-24T21:46:26.588Z,750.65
2023-04-24T21:48:53.306Z,744.92
2023-04-24T21:51:20.368Z,745.22
2023-04-24T21:53:47.267Z,744.50
2023-04-24T21:56:14.259Z,742.83
2023-04-24T21:58:41.325Z,740.90
2023-04-24T22:01:08.686Z,748.63
2023-04-24T22:03:35.634Z,727.45
2023-04-24T22:06:02.374Z,743.60
2023-04-24T22:08:29.067Z,738.33
2023-04-24T22:10:56.427Z,736.72
2023-04-24T22:13:23.172Z,738.58
2023-04-24T22:15:53.342Z,728.42
2023-04-24T22:18:20.050Z,737.65
2023-04-24T22:20:47.172Z,729.55
2023-04-24T22:23:13.930Z,734.75
2023-04-24T22:25:40.626Z,732.72
2023-04-24T22:28:07.304Z,738.00
2023-04-24T22:30:34.016Z,728.88
2023-04-24T22:33:01.387Z,733.77
2023-04-24T22:35:28.088Z,731.53
2023-04-24T22:37:55.505Z,726.88
2023-04-24T22:40:23.108Z,733.93
2023-04-24T22:42:49.794Z,731.80
2023-04-24T22:45:17.462Z,736.90
2023-04-24T22:47:44.243Z,727.58
2023-04-24T22:50:11.297Z,738.60
2023-04-24T22:52:37.927Z,730.63
2023-04-24T22:55:06.653Z,739.78
2023-04-24T22:57:33.425Z,745.75
2023-04-24T23:00:00.169Z,747.37
